Tamaqua, Pennsylvania
Current Conditions -  °F | °C
As of 4:15 PM on Wednesday 26 Nov 2014 (Local Time) from KHZL Reporting Station
Light Snow Light Snow  
Wind Chill: 24°   Ceiling: 300
Heat Index: 32°   Visibility: 0.75mi
Dew Point: 30°   Wind: 9mph
Humidity: 93%   Direction: 320°NW
Pressure: 29.91"   Gusts: 16mph
Location:  40.8°N, 75.97°W
Report Text: KHZL 262115Z AUTO 32008G14KT 3/4SM -SN OVC003 00/M01 A2991 RMK AO2
Loading
Personal Weather Stations






























Interactive Weather Map New forecast layout! Learn more

10-Day Weather Forecast

Advertisements
Track Severe Weather on mobile